sensor_id;sensor_type;location;lat;lon;timestamp;pressure;altitude;pressure_sealevel;temperature;humidity
39301;BME280;25019;42.626;23.380;2023-04-29T00:02:18;94475.47;;;5.40;68.67
39301;BME280;25019;42.626;23.380;2023-04-29T00:04:43;94417.41;;;4.97;68.06
39301;BME280;25019;42.626;23.380;2023-04-29T00:07:09;94456.94;;;5.22;68.28
39301;BME280;25019;42.626;23.380;2023-04-29T00:09:35;94425.31;;;4.97;68.57
39301;BME280;25019;42.626;23.380;2023-04-29T00:12:02;94409.00;;;4.81;68.59
39301;BME280;25019;42.626;23.380;2023-04-29T00:14:28;94457.81;;;5.09;68.94
39301;BME280;25019;42.626;23.380;2023-04-29T00:16:53;94478.66;;;5.17;68.84
39301;BME280;25019;42.626;23.380;2023-04-29T00:19:19;94482.72;;;5.13;68.85
39301;BME280;25019;42.626;23.380;2023-04-29T00:21:44;94493.06;;;5.15;69.07
39301;BME280;25019;42.626;23.380;2023-04-29T00:24:10;94484.78;;;5.04;69.05
39301;BME280;25019;42.626;23.380;2023-04-29T00:26:36;94498.94;;;5.10;69.32
39301;BME280;25019;42.626;23.380;2023-04-29T00:29:02;94477.53;;;5.00;69.82
39301;BME280;25019;42.626;23.380;2023-04-29T00:31:27;94490.84;;;5.05;70.01
39301;BME280;25019;42.626;23.380;2023-04-29T00:33:53;94437.63;;;4.64;70.54
39301;BME280;25019;42.626;23.380;2023-04-29T00:36:19;94495.31;;;5.04;69.90
39301;BME280;25019;42.626;23.380;2023-04-29T00:38:44;94473.94;;;4.87;70.16
39301;BME280;25019;42.626;23.380;2023-04-29T00:41:10;94501.66;;;4.97;70.40
39301;BME280;25019;42.626;23.380;2023-04-29T00:43:36;94486.88;;;4.89;70.74
39301;BME280;25019;42.626;23.380;2023-04-29T00:46:02;94426.16;;;4.52;70.63
39301;BME280;25019;42.626;23.380;2023-04-29T00:48:28;94490.34;;;4.89;70.94
39301;BME280;25019;42.626;23.380;2023-04-29T00:50:53;94495.00;;;4.87;72.24
39301;BME280;25019;42.626;23.380;2023-04-29T00:53:20;94471.00;;;4.70;72.99
39301;BME280;25019;42.626;23.380;2023-04-29T00:55:47;94451.41;;;4.59;73.31
39301;BME280;25019;42.626;23.380;2023-04-29T00:58:17;94404.00;;;4.27;73.61
39301;BME280;25019;42.626;23.380;2023-04-29T01:00:42;94381.00;;;4.09;73.83
39301;BME280;25019;42.626;23.380;2023-04-29T01:03:09;94449.22;;;4.49;74.33
39301;BME280;25019;42.626;23.380;2023-04-29T01:05:35;94452.84;;;4.55;74.27
39301;BME280;25019;42.626;23.380;2023-04-29T01:08:35;94326.41;;;3.66;74.41
39301;BME280;25019;42.626;23.380;2023-04-29T01:11:07;94435.75;;;4.32;75.06
39301;BME280;25019;42.626;23.380;2023-04-29T01:13:42;94448.09;;;4.32;75.22
39301;BME280;25019;42.626;23.380;2023-04-29T01:16:20;94452.91;;;4.35;75.25
39301;BME280;25019;42.626;23.380;2023-04-29T01:18:57;94444.69;;;4.25;75.09
39301;BME280;25019;42.626;23.380;2023-04-29T01:21:28;94381.94;;;3.83;74.79
39301;BME280;25019;42.626;23.380;2023-04-29T01:23:56;94357.09;;;3.65;73.83
39301;BME280;25019;42.626;23.380;2023-04-29T01:26:25;94440.03;;;4.20;72.87
39301;BME280;25019;42.626;23.380;2023-04-29T01:29:52;94421.22;;;4.16;71.29
39301;BME280;25019;42.626;23.380;2023-04-29T01:33:02;94399.59;;;4.14;69.38
39301;BME280;25019;42.626;23.380;2023-04-29T01:38:48;94434.91;;;4.39;68.56
39301;BME280;25019;42.626;23.380;2023-04-29T01:41:29;94399.19;;;4.17;67.97
39301;BME280;25019;42.626;23.380;2023-04-29T01:44:13;94445.22;;;4.40;68.76
39301;BME280;25019;42.626;23.380;2023-04-29T01:46:39;94423.38;;;4.33;70.42
39301;BME280;25019;42.626;23.380;2023-04-29T01:49:06;94365.13;;;3.90;71.91
39301;BME280;25019;42.626;23.380;2023-04-29T01:51:32;94439.16;;;4.33;73.32
39301;BME280;25019;42.626;23.380;2023-04-29T01:53:59;94373.63;;;3.86;75.20
39301;BME280;25019;42.626;23.380;2023-04-29T01:56:24;94323.19;;;3.50;75.09
39301;BME280;25019;42.626;23.380;2023-04-29T01:59:19;94364.34;;;3.77;76.43
39301;BME280;25019;42.626;23.380;2023-04-29T02:02:04;94437.59;;;4.25;76.91
39301;BME280;25019;42.626;23.380;2023-04-29T02:04:30;94369.59;;;3.83;77.80
39301;BME280;25019;42.626;23.380;2023-04-29T02:06:58;94402.28;;;4.01;77.79
39301;BME280;25019;42.626;23.380;2023-04-29T02:09:24;94443.66;;;4.26;77.89
39301;BME280;25019;42.626;23.380;2023-04-29T02:11:55;94384.34;;;3.84;77.87
39301;BME280;25019;42.626;23.380;2023-04-29T02:14:20;94449.34;;;4.23;77.81
39301;BME280;25019;42.626;23.380;2023-04-29T02:16:46;94432.97;;;4.14;78.05
39301;BME280;25019;42.626;23.380;2023-04-29T02:19:12;94433.16;;;4.12;78.33
39301;BME280;25019;42.626;23.380;2023-04-29T02:21:38;94433.16;;;4.12;77.65
39301;BME280;25019;42.626;23.380;2023-04-29T02:24:05;94341.00;;;3.41;78.21
39301;BME280;25019;42.626;23.380;2023-04-29T02:26:31;94385.59;;;3.75;78.23
39301;BME280;25019;42.626;23.380;2023-04-29T02:28:58;94447.75;;;4.15;78.55
39301;BME280;25019;42.626;23.380;2023-04-29T02:31:25;94372.84;;;3.65;79.03
39301;BME280;25019;42.626;23.380;2023-04-29T02:33:52;94441.31;;;4.04;78.71
39301;BME280;25019;42.626;23.380;2023-04-29T02:36:18;94381.16;;;3.69;78.49
39301;BME280;25019;42.626;23.380;2023-04-29T02:38:44;94405.94;;;3.86;78.92
39301;BME280;25019;42.626;23.380;2023-04-29T02:41:17;94411.03;;;3.88;78.84
39301;BME280;25019;42.626;23.380;2023-04-29T02:43:43;94423.13;;;3.96;79.02
39301;BME280;25019;42.626;23.380;2023-04-29T02:46:09;94317.81;;;3.25;78.67
39301;BME280;25019;42.626;23.380;2023-04-29T02:48:35;94435.59;;;4.07;79.58
39301;BME280;25019;42.626;23.380;2023-04-29T02:51:01;94379.13;;;3.64;79.16
39301;BME280;25019;42.626;23.380;2023-04-29T02:53:26;94396.91;;;3.69;79.01
39301;BME280;25019;42.626;23.380;2023-04-29T02:55:52;94450.00;;;3.98;78.93
39301;BME280;25019;42.626;23.380;2023-04-29T02:58:18;94416.09;;;3.76;79.51
39301;BME280;25019;42.626;23.380;2023-04-29T03:00:44;94444.56;;;3.86;79.55
39301;BME280;25019;42.626;23.380;2023-04-29T03:03:09;94378.56;;;3.28;79.35
39301;BME280;25019;42.626;23.380;2023-04-29T03:05:35;94463.78;;;3.80;79.25
39301;BME280;25019;42.626;23.380;2023-04-29T03:08:01;94455.31;;;3.71;79.69
39301;BME280;25019;42.626;23.380;2023-04-29T03:10:28;94460.16;;;3.74;79.67
39301;BME280;25019;42.626;23.380;2023-04-29T03:12:54;94433.50;;;3.57;80.19
39301;BME280;25019;42.626;23.380;2023-04-29T03:15:20;94446.41;;;3.58;80.13
39301;BME280;25019;42.626;23.380;2023-04-29T03:17:47;94435.09;;;3.51;80.30
39301;BME280;25019;42.626;23.380;2023-04-29T03:20:13;94347.50;;;2.85;80.87
39301;BME280;25019;42.626;23.380;2023-04-29T03:22:38;94476.72;;;3.68;81.32
39301;BME280;25019;42.626;23.380;2023-04-29T03:25:05;94470.25;;;3.64;81.90
39301;BME280;25019;42.626;23.380;2023-04-29T03:27:32;94481.56;;;3.64;81.96
39301;BME280;25019;42.626;23.380;2023-04-29T03:29:58;94470.66;;;3.54;82.89
39301;BME280;25019;42.626;23.380;2023-04-29T03:32:24;94471.84;;;3.51;82.99
39301;BME280;25019;42.626;23.380;2023-04-29T03:34:51;94490.66;;;3.62;83.04
39301;BME280;25019;42.626;23.380;2023-04-29T03:37:32;94415.72;;;3.19;82.56
39301;BME280;25019;42.626;23.380;2023-04-29T03:40:12;94413.31;;;3.17;82.01
39301;BME280;25019;42.626;23.380;2023-04-29T03:42:38;94497.94;;;3.73;82.10
39301;BME280;25019;42.626;23.380;2023-04-29T03:45:05;94511.25;;;3.78;81.97
39301;BME280;25019;42.626;23.380;2023-04-29T03:47:31;94443.81;;;3.45;81.72
39301;BME280;25019;42.626;23.380;2023-04-29T03:49:56;94501.56;;;3.85;80.79
39301;BME280;25019;42.626;23.380;2023-04-29T03:52:22;94429.66;;;3.53;80.28
39301;BME280;25019;42.626;23.380;2023-04-29T03:54:51;94501.13;;;3.95;80.32
39301;BME280;25019;42.626;23.380;2023-04-29T03:57:17;94495.91;;;3.88;79.12
39301;BME280;25019;42.626;23.380;2023-04-29T03:59:42;94443.97;;;3.50;78.40
39301;BME280;25019;42.626;23.380;2023-04-29T04:02:10;94462.56;;;3.75;78.37
39301;BME280;25019;42.626;23.380;2023-04-29T04:04:35;94484.16;;;4.04;78.55
39301;BME280;25019;42.626;23.380;2023-04-29T04:07:01;94417.50;;;3.72;78.80
39301;BME280;25019;42.626;23.380;2023-04-29T04:09:37;94449.19;;;4.04;79.78
39301;BME280;25019;42.626;23.380;2023-04-29T04:12:03;94473.00;;;4.23;79.67
39301;BME280;25019;42.626;23.380;2023-04-29T04:14:29;94428.16;;;3.97;79.70
39301;BME280;25019;42.626;23.380;2023-04-29T04:16:55;94375.06;;;3.68;79.29
39301;BME280;25019;42.626;23.380;2023-04-29T04:19:21;94426.72;;;4.15;78.83
39301;BME280;25019;42.626;23.380;2023-04-29T04:21:48;94464.59;;;4.53;78.76
39301;BME280;25019;42.626;23.380;2023-04-29T04:24:13;94468.78;;;4.67;78.08
39301;BME280;25019;42.626;23.380;2023-04-29T04:26:39;94488.72;;;4.88;78.27
39301;BME280;25019;42.626;23.380;2023-04-29T04:29:21;94431.97;;;4.60;77.01
39301;BME280;25019;42.626;23.380;2023-04-29T04:31:53;94493.47;;;5.12;76.55
39301;BME280;25019;42.626;23.380;2023-04-29T04:34:21;94491.75;;;5.24;75.67
39301;BME280;25019;42.626;23.380;2023-04-29T04:36:49;94489.66;;;5.33;75.73
39301;BME280;25019;42.626;23.380;2023-04-29T04:39:15;94414.19;;;4.94;76.11
39301;BME280;25019;42.626;23.380;2023-04-29T04:41:41;94475.00;;;5.44;76.27
39301;BME280;25019;42.626;23.380;2023-04-29T04:44:07;94405.78;;;5.11;76.32
39301;BME280;25019;42.626;23.380;2023-04-29T04:47:05;94483.03;;;5.81;76.48
39301;BME280;25019;42.626;23.380;2023-04-29T04:49:57;94427.88;;;5.61;75.75
39301;BME280;25019;42.626;23.380;2023-04-29T04:52:23;94478.72;;;6.12;75.11
39301;BME280;25019;42.626;23.380;2023-04-29T04:55:01;94481.97;;;6.33;75.40
39301;BME280;25019;42.626;23.380;2023-04-29T04:57:29;94451.41;;;6.25;73.76
39301;BME280;25019;42.626;23.380;2023-04-29T04:59:59;94440.06;;;6.43;73.10
39301;BME280;25019;42.626;23.380;2023-04-29T05:02:25;94485.66;;;6.99;71.31
39301;BME280;25019;42.626;23.380;2023-04-29T05:04:51;94487.63;;;7.34;70.25
39301;BME280;25019;42.626;23.380;2023-04-29T05:07:19;94484.56;;;7.61;69.78
39301;BME280;25019;42.626;23.380;2023-04-29T05:10:01;94434.56;;;7.48;68.42
39301;BME280;25019;42.626;23.380;2023-04-29T05:12:35;94470.00;;;8.06;67.55
39301;BME280;25019;42.626;23.380;2023-04-29T05:15:02;94401.03;;;7.84;66.77
39301;BME280;25019;42.626;23.380;2023-04-29T05:17:30;94451.84;;;8.22;67.37
39301;BME280;25019;42.626;23.380;2023-04-29T05:19:56;94461.47;;;8.64;66.35
39301;BME280;25019;42.626;23.380;2023-04-29T05:22:22;94465.66;;;8.89;65.55
39301;BME280;25019;42.626;23.380;2023-04-29T05:24:48;94446.88;;;8.90;65.10
39301;BME280;25019;42.626;23.380;2023-04-29T05:27:15;94456.84;;;9.00;63.83
39301;BME280;25019;42.626;23.380;2023-04-29T05:29:41;94402.16;;;8.65;63.83
39301;BME280;25019;42.626;23.380;2023-04-29T05:32:10;94446.94;;;9.24;63.34
39301;BME280;25019;42.626;23.380;2023-04-29T05:34:38;94439.66;;;9.32;62.43
39301;BME280;25019;42.626;23.380;2023-04-29T05:37:04;94398.88;;;9.33;61.51
39301;BME280;25019;42.626;23.380;2023-04-29T05:39:33;94440.56;;;9.88;60.97
39301;BME280;25019;42.626;23.380;2023-04-29T05:42:07;94378.50;;;9.89;60.16
39301;BME280;25019;42.626;23.380;2023-04-29T05:44:41;94441.28;;;10.62;59.05
39301;BME280;25019;42.626;23.380;2023-04-29T05:47:07;94370.69;;;10.22;57.86
39301;BME280;25019;42.626;23.380;2023-04-29T05:49:33;94430.03;;;10.77;57.31
39301;BME280;25019;42.626;23.380;2023-04-29T05:51:59;94361.81;;;10.56;56.87
39301;BME280;25019;42.626;23.380;2023-04-29T05:54:34;94420.41;;;11.21;56.34
39301;BME280;25019;42.626;23.380;2023-04-29T05:57:00;94370.56;;;11.06;55.73
39301;BME280;25019;42.626;23.380;2023-04-29T05:59:30;94344.50;;;10.75;55.27
39301;BME280;25019;42.626;23.380;2023-04-29T06:01:59;94381.47;;;11.09;54.25
39301;BME280;25019;42.626;23.380;2023-04-29T06:04:25;94441.69;;;11.86;53.68
39301;BME280;25019;42.626;23.380;2023-04-29T06:07:10;94448.38;;;12.26;53.08
39301;BME280;25019;42.626;23.380;2023-04-29T06:09:47;94374.97;;;11.55;54.12
39301;BME280;25019;42.626;23.380;2023-04-29T06:12:13;94428.09;;;11.82;54.33
39301;BME280;25019;42.626;23.380;2023-04-29T06:14:40;94450.03;;;11.95;54.27
39301;BME280;25019;42.626;23.380;2023-04-29T06:17:07;94446.00;;;11.92;54.27
39301;BME280;25019;42.626;23.380;2023-04-29T06:19:32;94376.22;;;11.47;54.02
39301;BME280;25019;42.626;23.380;2023-04-29T06:21:58;94395.69;;;11.53;54.07
39301;BME280;25019;42.626;23.380;2023-04-29T06:24:24;94438.66;;;11.72;54.53
39301;BME280;25019;42.626;23.380;2023-04-29T06:26:50;94408.84;;;11.37;53.94
39301;BME280;25019;42.626;23.380;2023-04-29T06:29:16;94445.22;;;11.32;54.68
39301;BME280;25019;42.626;23.380;2023-04-29T06:31:42;94441.28;;;11.07;54.93
39301;BME280;25019;42.626;23.380;2023-04-29T06:34:08;94412.63;;;10.64;55.87
39301;BME280;25019;42.626;23.380;2023-04-29T06:36:42;94439.44;;;10.63;56.24
39301;BME280;25019;42.626;23.380;2023-04-29T06:39:31;94446.03;;;10.60;56.80
39301;BME280;25019;42.626;23.380;2023-04-29T06:42:13;94422.53;;;10.47;57.41
39301;BME280;25019;42.626;23.380;2023-04-29T06:45:06;94437.72;;;10.52;58.53
39301;BME280;25019;42.626;23.380;2023-04-29T06:47:38;94400.63;;;10.17;58.17
39301;BME280;25019;42.626;23.380;2023-04-29T06:52:56;94213.97;;;9.01;58.30
39301;BME280;25019;42.626;23.380;2023-04-29T06:55:26;94371.94;;;10.14;57.56
39301;BME280;25019;42.626;23.380;2023-04-29T06:57:52;94448.53;;;10.67;59.21
39301;BME280;25019;42.626;23.380;2023-04-29T07:00:18;94437.53;;;10.81;57.99
39301;BME280;25019;42.626;23.380;2023-04-29T07:02:45;94168.38;;;8.81;57.80
39301;BME280;25019;42.626;23.380;2023-04-29T07:05:11;94243.31;;;9.16;57.97
39301;BME280;25019;42.626;23.380;2023-04-29T07:07:37;94380.50;;;10.22;58.85
39301;BME280;25019;42.626;23.380;2023-04-29T07:10:03;94415.91;;;10.49;58.31
39301;BME280;25019;42.626;23.380;2023-04-29T07:12:29;94407.09;;;10.66;57.87
39301;BME280;25019;42.626;23.380;2023-04-29T07:14:56;94436.09;;;10.95;57.46
39301;BME280;25019;42.626;23.380;2023-04-29T07:17:22;94413.81;;;10.74;56.71
39301;BME280;25019;42.626;23.380;2023-04-29T07:19:48;94424.56;;;10.84;57.04
39301;BME280;25019;42.626;23.380;2023-04-29T07:22:14;94387.16;;;10.41;57.69
39301;BME280;25019;42.626;23.380;2023-04-29T07:24:39;94419.00;;;10.63;57.60
39301;BME280;25019;42.626;23.380;2023-04-29T07:27:05;94416.53;;;10.57;57.97
39301;BME280;25019;42.626;23.380;2023-04-29T07:29:32;94363.28;;;10.24;57.76
39301;BME280;25019;42.626;23.380;2023-04-29T07:31:58;94357.09;;;10.18;57.98
39301;BME280;25019;42.626;23.380;2023-04-29T07:34:24;94416.84;;;10.60;57.66
39301;BME280;25019;42.626;23.380;2023-04-29T07:36:50;94432.41;;;10.74;57.58
39301;BME280;25019;42.626;23.380;2023-04-29T07:39:15;94422.63;;;10.79;57.35
39301;BME280;25019;42.626;23.380;2023-04-29T07:41:43;94423.59;;;10.96;56.54
39301;BME280;25019;42.626;23.380;2023-04-29T07:44:10;94373.47;;;10.77;56.42
39301;BME280;25019;42.626;23.380;2023-04-29T07:46:36;94432.72;;;11.32;56.47
39301;BME280;25019;42.626;23.380;2023-04-29T07:49:02;94429.06;;;11.38;56.79
39301;BME280;25019;42.626;23.380;2023-04-29T07:51:28;94423.25;;;11.42;56.74
39301;BME280;25019;42.626;23.380;2023-04-29T07:53:54;94424.59;;;11.44;55.16
39301;BME280;25019;42.626;23.380;2023-04-29T07:56:20;94405.75;;;11.46;55.00
39301;BME280;25019;42.626;23.380;2023-04-29T07:58:47;94415.19;;;11.64;55.35
39301;BME280;25019;42.626;23.380;2023-04-29T08:01:13;94421.41;;;11.75;53.42
39301;BME280;25019;42.626;23.380;2023-04-29T08:03:40;94414.84;;;11.88;52.33
39301;BME280;25019;42.626;23.380;2023-04-29T08:06:06;94397.53;;;11.90;53.29
39301;BME280;25019;42.626;23.380;2023-04-29T08:08:33;94403.88;;;11.79;52.18
39301;BME280;25019;42.626;23.380;2023-04-29T08:10:58;94412.59;;;11.74;50.84
39301;BME280;25019;42.626;23.380;2023-04-29T08:13:25;94403.53;;;11.70;50.64
39301;BME280;25019;42.626;23.380;2023-04-29T08:15:50;94333.13;;;11.45;49.85
39301;BME280;25019;42.626;23.380;2023-04-29T08:18:16;94399.56;;;12.10;50.38
39301;BME280;25019;42.626;23.380;2023-04-29T08:20:42;94407.09;;;12.29;51.19
39301;BME280;25019;42.626;23.380;2023-04-29T08:23:08;94382.94;;;12.36;50.23
39301;BME280;25019;42.626;23.380;2023-04-29T08:25:34;94395.84;;;12.65;49.04
39301;BME280;25019;42.626;23.380;2023-04-29T08:27:59;94393.50;;;12.89;49.12
39301;BME280;25019;42.626;23.380;2023-04-29T08:30:25;94391.06;;;12.77;46.82
39301;BME280;25019;42.626;23.380;2023-04-29T08:32:50;94349.41;;;12.50;45.61
39301;BME280;25019;42.626;23.380;2023-04-29T08:35:16;94393.53;;;12.99;45.78
39301;BME280;25019;42.626;23.380;2023-04-29T08:37:42;94397.28;;;13.03;46.21
39301;BME280;25019;42.626;23.380;2023-04-29T08:40:08;94398.38;;;13.33;46.11
39301;BME280;25019;42.626;23.380;2023-04-29T08:42:35;94399.75;;;13.83;45.58
39301;BME280;25019;42.626;23.380;2023-04-29T08:45:02;94397.31;;;14.02;43.05
39301;BME280;25019;42.626;23.380;2023-04-29T08:47:32;94391.97;;;14.07;42.45
39301;BME280;25019;42.626;23.380;2023-04-29T08:50:03;94393.31;;;14.04;43.02
39301;BME280;25019;42.626;23.380;2023-04-29T08:52:30;94384.25;;;13.90;43.29
39301;BME280;25019;42.626;23.380;2023-04-29T08:54:57;94382.66;;;13.94;42.57
39301;BME280;25019;42.626;23.380;2023-04-29T08:57:27;94373.81;;;14.09;41.45
39301;BME280;25019;42.626;23.380;2023-04-29T08:59:54;94330.03;;;13.94;41.04
39301;BME280;25019;42.626;23.380;2023-04-29T09:02:21;94373.25;;;14.17;41.26
39301;BME280;25019;42.626;23.380;2023-04-29T09:04:52;94362.53;;;14.22;41.83
39301;BME280;25019;42.626;23.380;2023-04-29T09:07:21;94356.97;;;14.19;40.59
39301;BME280;25019;42.626;23.380;2023-04-29T09:09:48;94362.22;;;14.39;41.29
39301;BME280;25019;42.626;23.380;2023-04-29T09:12:16;94356.81;;;14.60;42.08
39301;BME280;25019;42.626;23.380;2023-04-29T09:14:43;94298.56;;;14.62;41.06
39301;BME280;25019;42.626;23.380;2023-04-29T09:17:08;94343.31;;;15.31;40.47
39301;BME280;25019;42.626;23.380;2023-04-29T09:19:37;94340.34;;;15.33;39.36
39301;BME280;25019;42.626;23.380;2023-04-29T09:22:04;94251.47;;;14.66;39.71
39301;BME280;25019;42.626;23.380;2023-04-29T09:24:31;94345.47;;;15.29;39.78
39301;BME280;25019;42.626;23.380;2023-04-29T09:26:59;94340.34;;;15.67;39.40
39301;BME280;25019;42.626;23.380;2023-04-29T09:29:27;94302.16;;;15.56;38.66
39301;BME280;25019;42.626;23.380;2023-04-29T09:31:53;94338.75;;;16.20;37.74
39301;BME280;25019;42.626;23.380;2023-04-29T09:34:34;94337.94;;;16.25;36.27
39301;BME280;25019;42.626;23.380;2023-04-29T09:37:01;94332.53;;;16.49;36.70
39301;BME280;25019;42.626;23.380;2023-04-29T09:39:37;94331.59;;;16.59;35.83
39301;BME280;25019;42.626;23.380;2023-04-29T09:42:03;94303.31;;;16.72;35.60
39301;BME280;25019;42.626;23.380;2023-04-29T09:44:32;94317.94;;;16.80;35.61
39301;BME280;25019;42.626;23.380;2023-04-29T09:46:59;94322.78;;;16.58;36.02
39301;BME280;25019;42.626;23.380;2023-04-29T09:49:29;94318.78;;;16.37;34.85
39301;BME280;25019;42.626;23.380;2023-04-29T09:52:05;94323.25;;;16.41;35.71
39301;BME280;25019;42.626;23.380;2023-04-29T09:54:32;94277.56;;;16.52;34.97
39301;BME280;25019;42.626;23.380;2023-04-29T09:57:00;94318.25;;;16.97;34.85
39301;BME280;25019;42.626;23.380;2023-04-29T09:59:27;94299.19;;;16.80;34.45
39301;BME280;25019;42.626;23.380;2023-04-29T10:01:54;94301.06;;;16.79;35.13
39301;BME280;25019;42.626;23.380;2023-04-29T10:04:21;94303.53;;;16.95;34.50
39301;BME280;25019;42.626;23.380;2023-04-29T10:06:48;94292.91;;;17.09;34.43
39301;BME280;25019;42.626;23.380;2023-04-29T10:09:15;94296.47;;;17.37;33.89
39301;BME280;25019;42.626;23.380;2023-04-29T10:11:44;94254.78;;;17.26;33.12
39301;BME280;25019;42.626;23.380;2023-04-29T10:14:15;94297.84;;;17.67;33.08
39301;BME280;25019;42.626;23.380;2023-04-29T10:16:47;94289.00;;;17.81;33.22
39301;BME280;25019;42.626;23.380;2023-04-29T10:19:35;94285.81;;;17.79;33.13
39301;BME280;25019;42.626;23.380;2023-04-29T10:22:11;94283.72;;;17.76;33.55
39301;BME280;25019;42.626;23.380;2023-04-29T10:24:41;94277.00;;;17.92;34.08
39301;BME280;25019;42.626;23.380;2023-04-29T10:27:09;94277.41;;;18.00;34.17
39301;BME280;25019;42.626;23.380;2023-04-29T10:29:37;94217.28;;;17.67;34.24
39301;BME280;25019;42.626;23.380;2023-04-29T10:32:06;94282.34;;;17.78;34.29
39301;BME280;25019;42.626;23.380;2023-04-29T10:34:36;94222.28;;;17.27;33.63
39301;BME280;25019;42.626;23.380;2023-04-29T10:37:10;94261.16;;;17.91;33.12
39301;BME280;25019;42.626;23.380;2023-04-29T10:40:13;94261.56;;;18.40;32.62
39301;BME280;25019;42.626;23.380;2023-04-29T10:42:44;94254.66;;;18.62;32.76
39301;BME280;25019;42.626;23.380;2023-04-29T10:45:25;94230.41;;;18.39;31.16
39301;BME280;25019;42.626;23.380;2023-04-29T10:50:40;94247.16;;;18.08;29.98
39301;BME280;25019;42.626;23.380;2023-04-29T10:53:09;94268.25;;;18.15;30.94
39301;BME280;25019;42.626;23.380;2023-04-29T10:55:36;94260.19;;;18.29;31.03
39301;BME280;25019;42.626;23.380;2023-04-29T10:58:03;94198.59;;;18.04;30.83
39301;BME280;25019;42.626;23.380;2023-04-29T11:00:31;94203.22;;;18.26;30.65
39301;BME280;25019;42.626;23.380;2023-04-29T11:02:59;94203.94;;;18.32;30.83
39301;BME280;25019;42.626;23.380;2023-04-29T11:05:33;94244.50;;;18.59;30.71
39301;BME280;25019;42.626;23.380;2023-04-29T11:10:41;94233.53;;;18.18;30.61
39301;BME280;25019;42.626;23.380;2023-04-29T11:13:27;94250.72;;;18.31;31.49
39301;BME280;25019;42.626;23.380;2023-04-29T11:16:10;94252.22;;;17.95;31.66
39301;BME280;25019;42.626;23.380;2023-04-29T11:19:06;94250.16;;;18.06;31.83
39301;BME280;25019;42.626;23.380;2023-04-29T11:24:07;94270.94;;;18.01;29.35
39301;BME280;25019;42.626;23.380;2023-04-29T11:26:34;94078.41;;;16.84;29.43
39301;BME280;25019;42.626;23.380;2023-04-29T11:29:07;94262.66;;;17.97;29.87
39301;BME280;25019;42.626;23.380;2023-04-29T11:31:35;94069.72;;;16.73;30.12
39301;BME280;25019;42.626;23.380;2023-04-29T11:34:03;94081.97;;;16.46;30.80
39301;BME280;25019;42.626;23.380;2023-04-29T11:36:33;94121.78;;;16.72;31.21
39301;BME280;25019;42.626;23.380;2023-04-29T11:39:01;94254.69;;;17.31;31.15
39301;BME280;25019;42.626;23.380;2023-04-29T11:41:28;94080.66;;;16.11;31.38
39301;BME280;25019;42.626;23.380;2023-04-29T11:43:58;94205.47;;;16.69;32.62
39301;BME280;25019;42.626;23.380;2023-04-29T11:46:24;94101.72;;;16.17;33.10
39301;BME280;25019;42.626;23.380;2023-04-29T11:48:50;94249.78;;;17.19;33.18
39301;BME280;25019;42.626;23.380;2023-04-29T11:51:17;94232.50;;;17.25;33.20
39301;BME280;25019;42.626;23.380;2023-04-29T11:53:55;94125.41;;;16.62;33.49
39301;BME280;25019;42.626;23.380;2023-04-29T11:56:23;94168.19;;;16.87;33.20
39301;BME280;25019;42.626;23.380;2023-04-29T11:58:56;93965.72;;;15.38;33.22
39301;BME280;25019;42.626;23.380;2023-04-29T12:01:24;94247.03;;;17.24;33.20
39301;BME280;25019;42.626;23.380;2023-04-29T12:03:49;94160.84;;;16.40;32.85
39301;BME280;25019;42.626;23.380;2023-04-29T12:06:15;94251.94;;;16.84;32.99
39301;BME280;25019;42.626;23.380;2023-04-29T12:08:41;94251.94;;;16.84;33.78
39301;BME280;25019;42.626;23.380;2023-04-29T12:11:07;94242.06;;;16.79;34.86
39301;BME280;25019;42.626;23.380;2023-04-29T12:13:33;94250.09;;;16.79;35.38
39301;BME280;25019;42.626;23.380;2023-04-29T12:16:02;94188.91;;;16.29;36.24
39301;BME280;25019;42.626;23.380;2023-04-29T12:18:29;94248.59;;;16.54;36.89
39301;BME280;25019;42.626;23.380;2023-04-29T12:20:55;94238.06;;;16.38;36.37
39301;BME280;25019;42.626;23.380;2023-04-29T12:23:25;94189.41;;;16.12;36.82
39301;BME280;25019;42.626;23.380;2023-04-29T12:25:57;94185.69;;;16.08;37.58
39301;BME280;25019;42.626;23.380;2023-04-29T12:28:23;94225.84;;;16.51;38.11
39301;BME280;25019;42.626;23.380;2023-04-29T12:30:51;94241.56;;;16.39;38.52
39301;BME280;25019;42.626;23.380;2023-04-29T12:33:26;94241.66;;;16.09;40.13
39301;BME280;25019;42.626;23.380;2023-04-29T12:35:54;94239.94;;;15.94;40.88
39301;BME280;25019;42.626;23.380;2023-04-29T12:38:26;94185.47;;;15.55;42.51
39301;BME280;25019;42.626;23.380;2023-04-29T12:40:59;94236.22;;;16.14;42.04
39301;BME280;25019;42.626;23.380;2023-04-29T12:43:27;94239.47;;;16.36;42.82
39301;BME280;25019;42.626;23.380;2023-04-29T12:45:59;94222.22;;;16.42;41.78
39301;BME280;25019;42.626;23.380;2023-04-29T12:48:29;94228.81;;;16.69;42.59
39301;BME280;25019;42.626;23.380;2023-04-29T12:50:55;94211.53;;;16.94;40.77
39301;BME280;25019;42.626;23.380;2023-04-29T12:53:22;94226.69;;;17.37;40.07
39301;BME280;25019;42.626;23.380;2023-04-29T12:55:49;94233.06;;;17.55;40.24
39301;BME280;25019;42.626;23.380;2023-04-29T12:58:14;94207.31;;;17.54;40.32
39301;BME280;25019;42.626;23.380;2023-04-29T13:00:40;94174.81;;;17.42;39.49
39301;BME280;25019;42.626;23.380;2023-04-29T13:03:06;94167.34;;;17.39;39.40
39301;BME280;25019;42.626;23.380;2023-04-29T13:05:32;94216.78;;;17.93;38.48
39301;BME280;25019;42.626;23.380;2023-04-29T13:07:58;94217.91;;;18.06;38.57
39301;BME280;25019;42.626;23.380;2023-04-29T13:10:24;94215.88;;;18.26;38.31
39301;BME280;25019;42.626;23.380;2023-04-29T13:12:49;94213.78;;;18.37;38.20
39301;BME280;25019;42.626;23.380;2023-04-29T13:15:15;94201.00;;;18.42;37.50
39301;BME280;25019;42.626;23.380;2023-04-29T13:17:41;94149.34;;;18.09;37.95
39301;BME280;25019;42.626;23.380;2023-04-29T13:20:07;94211.69;;;18.34;37.86